Time;durP1;ratioP1;P1;durP2;ratioP2;P2;SDS_P1;SDS_P2;PMS_P1;PMS_P2;Temp;Humidity;BMP_temperature;BMP_pressure;BME280_temperature;BME280_humidity;BME280_pressure;Samples;Min_cycle;Max_cycle;Signal;HPM_P1;HPM_P2
2022/11/19 00:01:24;;;;;;;13.13;6.00;;;;;;;2.28;100.00;93027.97;4893361;29;20053;-52
2022/11/19 00:03:50;;;;;;;12.23;5.73;;;;;;;2.11;100.00;93022.13;4892817;29;20060;-52
2022/11/19 00:06:22;;;;;;;11.82;5.80;;;;;;;2.01;100.00;93025.56;4893512;29;20041;-52
2022/11/19 00:08:49;;;;;;;11.50;4.78;;;;;;;1.91;100.00;93029.03;4892612;29;20047;-53
2022/11/19 00:14:11;;;;;;;15.75;6.20;;;;;;;1.77;100.00;93027.03;4892440;29;20305;-56
2022/11/19 00:16:38;;;;;;;21.50;8.30;;;;;;;1.65;100.00;93027.38;4893200;29;20044;-53
2022/11/19 00:19:05;;;;;;;21.77;8.40;;;;;;;1.56;100.00;93020.41;4892153;29;20860;-53
2022/11/19 00:21:32;;;;;;;14.45;7.10;;;;;;;1.63;100.00;93022.38;4893237;29;20057;-55
2022/11/19 00:23:58;;;;;;;15.48;7.47;;;;;;;1.58;100.00;93020.78;4892513;29;20055;-50
2022/11/19 00:26:25;;;;;;;13.98;7.40;;;;;;;1.63;100.00;93019.69;4876618;29;20053;-49
2022/11/19 00:28:53;;;;;;;17.70;7.87;;;;;;;1.59;100.00;93014.25;4892604;29;20080;-52
2022/11/19 00:31:20;;;;;;;14.98;6.30;;;;;;;1.57;100.00;93018.47;4892958;29;20434;-52
2022/11/19 00:33:49;;;;;;;11.55;5.72;;;;;;;1.52;100.00;93016.16;4892145;29;20060;-52
2022/11/19 00:36:16;;;;;;;10.60;4.35;;;;;;;1.53;100.00;93014.97;4893074;29;20099;-53
2022/11/19 00:38:43;;;;;;;9.90;4.30;;;;;;;1.55;100.00;93021.56;4892629;29;20056;-58
2022/11/19 00:41:10;;;;;;;9.33;4.50;;;;;;;1.60;100.00;93020.41;4898012;29;20041;-54
2022/11/19 00:43:46;;;;;;;12.15;3.83;;;;;;;1.62;100.00;93023.53;4896937;29;20486;-52
2022/11/19 00:46:14;;;;;;;8.43;3.63;;;;;;;1.57;100.00;93021.97;4894878;29;21757;-55
2022/11/19 00:48:41;;;;;;;7.55;3.40;;;;;;;1.69;100.00;93020.06;4896678;29;20052;-54
2022/11/19 00:51:09;;;;;;;6.57;2.88;;;;;;;1.78;100.00;93028.59;4897061;29;20056;-54
2022/11/19 00:53:35;;;;;;;5.53;2.60;;;;;;;1.90;100.00;93030.97;4896705;29;20074;-52
2022/11/19 00:56:05;;;;;;;5.97;2.70;;;;;;;1.89;100.00;93028.63;4895891;29;20053;-57
2022/11/19 00:58:32;;;;;;;5.95;2.88;;;;;;;1.83;100.00;93035.56;4896638;29;20478;-51
2022/11/19 01:00:59;;;;;;;7.57;3.72;;;;;;;2.04;100.00;93034.88;4895857;29;20052;-50
2022/11/19 01:03:26;;;;;;;8.65;3.80;;;;;;;2.06;100.00;93036.03;4896504;29;20055;-54
2022/11/19 01:05:53;;;;;;;8.93;3.10;;;;;;;1.87;100.00;93034.44;4878955;29;20074;-51
2022/11/19 01:08:20;;;;;;;6.45;3.45;;;;;;;1.74;100.00;93033.22;4896518;29;20063;-50
2022/11/19 01:10:47;;;;;;;14.70;7.05;;;;;;;1.80;100.00;93039.81;4895784;29;20053;-51
2022/11/19 01:16:12;;;;;;;9.13;4.63;;;;;;;1.82;100.00;93047.56;4894625;29;20503;-54
2022/11/19 01:18:40;;;;;;;12.47;5.20;;;;;;;1.71;100.00;93037.47;4896028;29;20054;-51
2022/11/19 01:21:09;;;;;;;12.13;5.78;;;;;;;1.86;100.00;93038.28;4895692;29;20506;-51
2022/11/19 01:23:38;;;;;;;9.43;4.72;;;;;;;1.84;100.00;93040.59;4896125;29;20055;-48
2022/11/19 01:26:05;;;;;;;8.48;3.67;;;;;;;1.76;100.00;93042.50;4895489;29;20432;-50
2022/11/19 01:28:33;;;;;;;8.07;3.70;;;;;;;1.80;100.00;93040.59;4896137;29;20049;-51
2022/11/19 01:31:06;;;;;;;5.90;3.07;;;;;;;1.84;100.00;93047.94;4894932;29;20251;-53
2022/11/19 01:33:33;;;;;;;9.27;3.58;;;;;;;1.90;100.00;93043.72;4896389;29;20485;-51
2022/11/19 01:36:03;;;;;;;7.88;3.63;;;;;;;1.97;100.00;93051.84;4895372;29;20056;-52
2022/11/19 01:38:30;;;;;;;5.78;2.90;;;;;;;2.06;100.00;93049.56;4883031;29;20044;-52
2022/11/19 01:40:58;;;;;;;7.25;3.55;;;;;;;2.11;100.00;93051.91;4900550;29;20052;-47
2022/11/19 01:43:45;;;;;;;8.40;3.70;;;;;;;2.19;100.00;93047.25;4895612;29;20056;-50
2022/11/19 01:46:15;;;;;;;8.13;3.70;;;;;;;2.33;100.00;93043.81;4894078;29;21480;-51
2022/11/19 01:49:04;;;;;;;8.20;3.85;;;;;;;2.32;100.00;93047.69;4895572;29;20521;-48
2022/11/19 01:51:40;;;;;;;18.80;8.82;;;;;;;2.43;100.00;93043.06;4894557;29;20083;-49
2022/11/19 01:54:14;;;;;;;11.07;4.63;;;;;;;2.55;100.00;93055.44;4881823;29;20618;-51
2022/11/19 01:56:41;;;;;;;7.93;3.60;;;;;;;2.45;100.00;93050.78;4881391;29;20044;-54
2022/11/19 01:59:15;;;;;;;7.07;3.33;;;;;;;2.43;100.00;93051.19;4878956;29;20060;-51
2022/11/19 02:01:43;;;;;;;8.25;4.20;;;;;;;2.46;100.00;93052.38;4878386;29;20056;-51
2022/11/19 02:04:12;;;;;;;8.02;3.80;;;;;;;2.49;100.00;93052.34;4895306;29;20494;-48
2022/11/19 02:06:40;;;;;;;7.75;3.80;;;;;;;2.52;100.00;93058.94;4894664;29;20045;-50
2022/11/19 02:09:13;;;;;;;9.47;4.27;;;;;;;2.38;100.00;93055.03;4895371;29;20055;-54
2022/11/19 02:11:45;;;;;;;6.50;3.35;;;;;;;2.50;100.00;93053.13;4894783;29;20057;-52
2022/11/19 02:14:33;;;;;;;5.90;3.03;;;;;;;2.46;100.00;93049.66;4863073;29;20107;-47
2022/11/19 02:17:12;;;;;;;6.13;2.90;;;;;;;2.56;100.00;93051.59;4894440;29;20052;-51
2022/11/19 02:20:12;;;;;;;7.90;3.40;;;;;;;2.62;100.00;93050.06;4895381;29;20107;-52
2022/11/19 02:22:54;;;;;;;7.93;3.33;;;;;;;2.66;100.00;93047.34;4894498;29;20686;-47
2022/11/19 02:25:48;;;;;;;6.78;3.33;;;;;;;2.57;100.00;93045.78;4877636;29;20060;-48
2022/11/19 02:28:37;;;;;;;8.38;4.40;;;;;;;2.62;100.00;93043.84;4894224;29;21383;-54
2022/11/19 02:31:09;;;;;;;5.95;2.72;;;;;;;2.55;100.00;93050.03;4893757;29;20040;-50
2022/11/19 02:33:45;;;;;;;8.80;3.90;;;;;;;2.61;100.00;93056.63;4894909;29;20047;-52
2022/11/19 02:36:35;;;;;;;6.00;3.20;;;;;;;2.66;100.00;93056.25;4893982;29;20045;-52
2022/11/19 02:39:10;;;;;;;17.40;8.30;;;;;;;2.70;100.00;93056.25;4896205;29;20410;-51
2022/11/19 02:41:54;;;;;;;8.73;3.88;;;;;;;2.72;100.00;93057.41;4897052;29;20048;-52
2022/11/19 02:47:21;;;;;;;6.45;3.70;;;;;;;2.61;100.00;93067.44;4872976;29;20055;-52
2022/11/19 02:49:53;;;;;;;6.07;2.83;;;;;;;2.66;100.00;93061.66;4891003;29;20060;-48
2022/11/19 02:52:20;;;;;;;5.70;2.97;;;;;;;2.45;100.00;93059.69;4880240;29;20044;-51
2022/11/19 02:54:47;;;;;;;6.05;2.83;;;;;;;2.38;100.00;93059.69;4894078;29;20431;-54
2022/11/19 02:57:13;;;;;;;6.82;3.30;;;;;;;2.34;100.00;93051.56;4877715;29;20072;-53
2022/11/19 03:05:26;;;;;;;5.35;2.63;;;;;;;2.32;100.00;93058.53;4882304;29;20652;-49
2022/11/19 03:07:53;;;;;;;4.40;2.10;;;;;;;2.34;100.00;93065.09;4876841;29;20044;-51
2022/11/19 03:10:24;;;;;;;4.55;2.45;;;;;;;2.43;100.00;93062.00;4894273;29;20485;-50
2022/11/19 03:16:40;;;;;;;4.82;2.40;;;;;;;2.36;100.00;93062.00;4891097;29;20064;-58
2022/11/19 03:18:53;;;;;;;5.78;2.90;;;;;;;1.94;100.00;93063.44;4893676;29;21758;-53
2022/11/19 03:21:35;;;;;;;6.53;3.33;;;;;;;1.94;100.00;93068.84;4877510;29;20059;-54
2022/11/19 03:24:35;;;;;;;6.25;2.97;;;;;;;2.04;100.00;93068.13;4893437;29;20049;-52
2022/11/19 03:27:18;;;;;;;5.45;3.00;;;;;;;2.03;100.00;93066.56;4893200;29;20060;-50
2022/11/19 03:29:53;;;;;;;6.13;3.60;;;;;;;2.03;100.00;93065.78;4893287;29;20074;-53
2022/11/19 03:32:29;;;;;;;6.07;3.00;;;;;;;2.02;100.00;93059.59;4893753;29;20054;-48
2022/11/19 03:35:01;;;;;;;6.28;2.85;;;;;;;2.00;100.00;93057.28;4892993;29;20053;-54
2022/11/19 03:37:30;;;;;;;5.68;2.75;;;;;;;2.07;100.00;93055.75;4893985;29;20076;-50
2022/11/19 03:40:01;;;;;;;4.38;2.33;;;;;;;2.07;100.00;93055.75;4902067;29;20453;-51
2022/11/19 03:42:29;;;;;;;4.43;1.90;;;;;;;2.06;100.00;93057.69;4894919;29;20055;-50
2022/11/19 03:45:09;;;;;;;5.45;2.53;;;;;;;1.81;100.00;93054.88;4892908;29;20044;-53
2022/11/19 03:47:40;;;;;;;5.80;2.10;;;;;;;1.85;100.00;93063.00;4877010;29;20053;-53
2022/11/19 03:50:19;;;;;;;4.28;2.45;;;;;;;1.83;100.00;93054.50;4892702;29;20491;-51
2022/11/19 03:52:46;;;;;;;5.25;2.45;;;;;;;1.67;100.00;93057.53;4876366;29;20079;-51
2022/11/19 03:55:13;;;;;;;5.53;2.40;;;;;;;1.67;100.00;93052.13;4893481;29;20044;-53
2022/11/19 03:57:39;;;;;;;4.95;2.58;;;;;;;1.62;100.00;93055.97;4892899;29;20051;-50
2022/11/19 04:00:07;;;;;;;8.38;2.88;;;;;;;1.50;100.00;93050.91;4893008;29;20053;-53
2022/11/19 04:02:34;;;;;;;8.35;4.60;;;;;;;1.52;100.00;93056.69;4893382;29;20059;-53
2022/11/19 04:05:00;;;;;;;10.00;5.28;;;;;;;1.52;100.00;93054.75;4892549;29;20057;-54
2022/11/19 04:07:27;;;;;;;9.67;4.40;;;;;;;1.38;100.00;93060.88;4893431;29;20049;-55
2022/11/19 04:09:54;;;;;;;6.10;3.25;;;;;;;1.40;100.00;93061.28;4892709;29;20048;-52
2022/11/19 04:12:23;;;;;;;5.18;2.92;;;;;;;1.34;100.00;93062.00;4893148;29;20059;-52
2022/11/19 04:14:51;;;;;;;5.28;2.80;;;;;;;1.23;100.00;93061.16;4892105;29;20403;-51
2022/11/19 04:17:19;;;;;;;5.05;2.75;;;;;;;1.22;100.00;93065.03;4893142;29;20584;-52
2022/11/19 04:19:46;;;;;;;4.10;2.17;;;;;;;1.22;100.00;93065.03;4892867;29;20057;-52
2022/11/19 04:22:13;;;;;;;4.63;2.28;;;;;;;1.20;100.00;93063.47;4892909;29;20490;-51
2022/11/19 04:24:40;;;;;;;4.35;2.30;;;;;;;1.15;100.00;93060.38;4891340;29;20058;-54
2022/11/19 04:27:07;;;;;;;4.22;2.10;;;;;;;1.12;100.00;93069.97;4893490;29;20502;-54
2022/11/19 04:29:33;;;;;;;4.35;1.95;;;;;;;1.11;100.00;93065.75;4893288;29;20044;-51
2022/11/19 04:32:00;;;;;;;11.13;3.80;;;;;;;1.04;100.00;93060.28;4892319;29;20406;-52
2022/11/19 04:34:27;;;;;;;8.13;3.63;;;;;;;0.99;100.00;93056.00;4892883;29;20045;-55
2022/11/19 04:36:53;;;;;;;7.32;3.58;;;;;;;0.89;100.00;93056.72;4892700;29;20067;-54
2022/11/19 04:39:20;;;;;;;11.25;5.60;;;;;;;0.87;100.00;93058.25;4897260;29;20091;-52
2022/11/19 04:41:47;;;;;;;4.68;2.35;;;;;;;0.88;100.00;93060.56;4896279;29;20482;-52
2022/11/19 04:44:14;;;;;;;5.60;2.03;;;;;;;0.89;100.00;93059.41;4892680;29;20503;-50
2022/11/19 04:46:40;;;;;;;8.20;3.97;;;;;;;0.84;100.00;93058.97;4892614;29;20134;-51
2022/11/19 04:49:07;;;;;;;9.40;4.47;;;;;;;0.81;100.00;93068.63;4876216;29;20052;-52
2022/11/19 04:51:34;;;;;;;14.55;6.05;;;;;;;0.77;100.00;93063.19;4893199;29;20524;-52
2022/11/19 04:54:00;;;;;;;6.75;3.03;;;;;;;0.78;100.00;93072.06;4892335;29;20060;-50
2022/11/19 04:56:27;;;;;;;6.80;2.87;;;;;;;0.65;100.00;93066.19;4893156;29;20050;-51
2022/11/19 04:58:54;;;;;;;6.03;3.60;;;;;;;0.68;100.00;93068.13;4892367;29;20044;-51
2022/11/19 05:01:20;;;;;;;11.25;3.65;;;;;;;0.67;100.00;93063.09;4892552;29;20096;-53
2022/11/19 05:03:47;;;;;;;12.45;3.30;;;;;;;0.64;100.00;93067.31;4892397;29;20410;-51
2022/11/19 05:06:14;;;;;;;6.65;3.70;;;;;;;0.64;100.00;93066.53;4892668;29;20044;-51
2022/11/19 05:08:40;;;;;;;9.13;4.83;;;;;;;0.55;100.00;93078.44;4892397;29;20506;-52
2022/11/19 05:11:07;;;;;;;7.20;3.42;;;;;;;0.41;100.00;93072.13;4892788;29;20084;-51
2022/11/19 05:13:34;;;;;;;7.50;3.25;;;;;;;0.38;100.00;93074.44;4892948;29;20048;-49
2022/11/19 05:16:01;;;;;;;5.68;3.00;;;;;;;0.44;100.00;93065.97;4875720;29;20037;-51
2022/11/19 05:18:27;;;;;;;5.22;2.70;;;;;;;0.44;100.00;93074.84;4892879;29;20041;-53
2022/11/19 05:20:54;;;;;;;4.30;2.10;;;;;;;0.47;100.00;93076.81;4892402;29;20064;-52
2022/11/19 05:23:21;;;;;;;4.40;2.25;;;;;;;0.52;100.00;93087.25;4891204;29;20052;-51
2022/11/19 05:25:48;;;;;;;6.95;3.38;;;;;;;0.49;100.00;93074.53;4894103;29;20569;-54
2022/11/19 05:28:14;;;;;;;10.02;3.78;;;;;;;0.43;100.00;93078.72;4896654;29;20044;-51
2022/11/19 05:30:41;;;;;;;6.72;3.65;;;;;;;0.43;100.00;93078.72;4878861;29;20052;-51
2022/11/19 05:33:07;;;;;;;15.20;4.45;;;;;;;0.38;100.00;93079.84;4895814;29;20044;-51
2022/11/19 05:35:34;;;;;;;15.02;3.50;;;;;;;0.17;100.00;93079.63;4879326;29;20043;-51
2022/11/19 05:38:01;;;;;;;13.27;3.08;;;;;;;0.20;100.00;93084.25;4878428;29;20083;-53
2022/11/19 05:40:28;;;;;;;7.65;3.38;;;;;;;0.14;100.00;93085.75;4906637;29;20071;-54
2022/11/19 05:42:54;;;;;;;9.75;3.90;;;;;;;0.17;100.00;93085.78;4895380;29;20048;-51
2022/11/19 05:45:21;;;;;;;13.50;3.60;;;;;;;0.15;100.00;93085.38;4878948;29;20052;-53
2022/11/19 05:47:53;;;;;;;8.27;3.90;;;;;;;0.21;100.00;93085.81;4895571;29;20044;-50
2022/11/19 05:50:19;;;;;;;14.50;5.72;;;;;;;0.16;100.00;93084.25;4895698;29;20077;-52
2022/11/19 05:52:46;;;;;;;14.65;6.40;;;;;;;0.22;100.00;93092.75;4894963;29;20406;-52
2022/11/19 05:55:13;;;;;;;15.18;5.70;;;;;;;0.26;100.00;93085.47;4895647;29;20053;-49
2022/11/19 05:57:39;;;;;;;15.17;5.83;;;;;;;0.29;100.00;93090.16;4894996;29;20417;-51
2022/11/19 06:00:07;;;;;;;12.00;5.10;;;;;;;0.18;100.00;93095.44;4895146;29;20053;-52
2022/11/19 06:02:33;;;;;;;7.28;3.10;;;;;;;0.24;100.00;93097.78;4895066;29;20466;-51
2022/11/19 06:05:00;;;;;;;5.03;2.20;;;;;;;0.31;100.00;93100.56;4894998;29;20370;-52
2022/11/19 06:07:27;;;;;;;13.45;2.30;;;;;;;0.39;100.00;93099.50;4878422;29;20067;-50
2022/11/19 06:09:53;;;;;;;7.37;1.90;;;;;;;0.46;100.00;93106.88;4894629;29;20051;-50
2022/11/19 06:12:20;;;;;;;9.38;2.10;;;;;;;0.50;100.00;93113.09;4895164;29;20407;-49
2022/11/19 06:14:47;;;;;;;5.20;2.58;;;;;;;0.62;100.00;93115.50;4877836;29;20063;-51
2022/11/19 06:17:14;;;;;;;6.63;2.60;;;;;;;0.67;100.00;93114.41;4894845;29;20045;-51
2022/11/19 06:19:40;;;;;;;12.27;2.60;;;;;;;0.76;100.00;93117.56;4894945;29;20052;-48
2022/11/19 06:22:08;;;;;;;7.50;3.63;;;;;;;0.85;100.00;93126.16;4894954;29;20049;-51
2022/11/19 06:24:35;;;;;;;5.97;2.80;;;;;;;0.91;100.00;93118.47;4895253;29;20052;-51
2022/11/19 06:27:01;;;;;;;6.75;3.42;;;;;;;0.83;100.00;93124.97;4894337;29;20166;-54
2022/11/19 06:29:28;;;;;;;5.30;2.55;;;;;;;1.00;100.00;93119.69;4894979;29;20532;-51
2022/11/19 06:31:55;;;;;;;6.95;3.47;;;;;;;1.05;100.00;93124.00;4894160;29;20061;-50
2022/11/19 06:34:21;;;;;;;5.20;2.27;;;;;;;0.94;100.00;93121.19;4894421;29;20075;-51
2022/11/19 06:36:48;;;;;;;4.63;2.30;;;;;;;0.95;100.00;93127.38;4893536;29;20394;-52
2022/11/19 06:39:17;;;;;;;8.82;4.68;;;;;;;0.93;100.00;93125.06;4898465;29;20107;-51
2022/11/19 06:41:47;;;;;;;10.18;3.90;;;;;;;1.11;100.00;93129.81;4899853;29;20362;-52
2022/11/19 06:44:14;;;;;;;9.88;3.47;;;;;;;1.09;100.00;93127.50;4878091;29;20080;-51
2022/11/19 06:46:40;;;;;;;42.90;3.93;;;;;;;1.03;100.00;93130.91;4877235;29;20092;-50
2022/11/19 06:49:08;;;;;;;11.45;3.33;;;;;;;1.09;100.00;93140.25;4877339;29;20057;-50
2022/11/19 06:51:35;;;;;;;7.45;2.90;;;;;;;1.11;100.00;93137.94;4894372;29;20055;-51
2022/11/19 06:54:01;;;;;;;5.15;2.50;;;;;;;1.06;100.00;93143.66;4893746;29;20052;-51
2022/11/19 06:56:28;;;;;;;4.95;2.17;;;;;;;1.13;100.00;93149.16;4894508;29;20056;-52
2022/11/19 06:58:57;;;;;;;9.27;4.67;;;;;;;1.21;100.00;93153.44;4893937;29;20444;-51
2022/11/19 07:01:23;;;;;;;43.15;15.07;;;;;;;0.82;100.00;93162.00;4876323;29;20544;-51
2022/11/19 07:03:50;;;;;;;16.40;7.40;;;;;;;1.14;100.00;93164.19;4894026;29;20083;-54
2022/11/19 07:06:17;;;;;;;10.80;5.00;;;;;;;1.16;100.00;93161.91;4894230;29;20045;-50
2022/11/19 07:08:43;;;;;;;9.15;3.95;;;;;;;1.08;100.00;93166.47;4893823;29;20059;-50
2022/11/19 07:11:25;;;;;;;8.90;3.13;;;;;;;1.16;100.00;93170.78;4894088;29;20045;-51
2022/11/19 07:13:58;;;;;;;10.48;3.80;;;;;;;1.30;100.00;93170.09;4893680;29;20044;-50
2022/11/19 07:16:33;;;;;;;8.68;4.13;;;;;;;1.47;100.00;93168.69;4893964;29;20063;-49
2022/11/19 07:19:02;;;;;;;12.15;3.70;;;;;;;1.60;100.00;93175.34;4876702;29;20053;-50
2022/11/19 07:21:30;;;;;;;10.65;4.07;;;;;;;1.74;100.00;93171.19;4893940;29;20067;-54
2022/11/19 07:23:58;;;;;;;9.10;3.50;;;;;;;1.72;100.00;93171.56;4893645;29;20064;-54
2022/11/19 07:26:25;;;;;;;13.05;3.50;;;;;;;1.72;100.00;93176.19;4893635;29;20491;-48
2022/11/19 07:28:52;;;;;;;13.60;3.65;;;;;;;1.36;100.00;93168.59;4893346;29;20541;-51
2022/11/19 07:31:19;;;;;;;17.80;3.83;;;;;;;1.54;100.00;93179.53;4893240;29;20079;-51
2022/11/19 07:33:46;;;;;;;23.45;4.30;;;;;;;1.45;100.00;93184.53;4893199;29;20426;-51
2022/11/19 07:36:12;;;;;;;10.67;4.30;;;;;;;1.56;100.00;93190.75;4893493;29;20070;-51
2022/11/19 07:38:45;;;;;;;19.52;4.22;;;;;;;1.65;100.00;93197.78;4893486;29;20131;-52
2022/11/19 07:43:57;;;;;;;9.23;3.50;;;;;;;1.66;100.00;93194.69;4893261;29;20060;-51
2022/11/19 07:46:24;;;;;;;6.05;2.80;;;;;;;1.64;100.00;93198.94;4893171;29;20131;-51
2022/11/19 07:48:53;;;;;;;5.20;2.40;;;;;;;1.65;100.00;93195.88;4876584;29;20044;-51
2022/11/19 07:51:20;;;;;;;5.68;2.20;;;;;;;1.80;100.00;93204.84;4893014;29;20456;-54
2022/11/19 07:53:46;;;;;;;5.32;2.60;;;;;;;2.05;100.00;93204.97;4892962;29;20099;-55
2022/11/19 07:56:13;;;;;;;5.90;2.72;;;;;;;2.14;100.00;93215.47;4893288;29;20052;-51
2022/11/19 07:58:40;;;;;;;5.03;2.20;;;;;;;2.19;100.00;93221.31;4893287;29;20055;-52
2022/11/19 08:01:11;;;;;;;5.77;2.57;;;;;;;2.20;100.00;93217.44;4893339;29;20045;-52
2022/11/19 08:03:41;;;;;;;5.10;2.15;;;;;;;2.36;100.00;93213.63;4893540;29;20071;-54
2022/11/19 08:06:08;;;;;;;13.45;5.38;;;;;;;2.14;100.00;93210.81;4892642;29;21549;-50
2022/11/19 08:08:35;;;;;;;8.73;3.70;;;;;;;2.37;100.00;93209.75;4893389;29;20044;-52
2022/11/19 08:11:03;;;;;;;6.15;3.42;;;;;;;2.71;100.00;93206.78;4876195;29;20048;-50
2022/11/19 08:13:31;;;;;;;5.00;2.47;;;;;;;2.87;100.00;93203.72;4891683;29;20049;-51
2022/11/19 08:16:04;;;;;;;5.10;2.58;;;;;;;2.97;100.00;93205.69;4893279;29;20048;-50
2022/11/19 08:18:31;;;;;;;8.68;4.43;;;;;;;2.43;100.00;93196.63;4879521;29;20041;-53
2022/11/19 08:21:04;;;;;;;12.23;5.22;;;;;;;2.45;100.00;93203.22;4892960;29;20051;-52
2022/11/19 08:23:31;;;;;;;11.90;5.90;;;;;;;2.69;100.00;93198.28;4876295;29;20048;-50
2022/11/19 08:25:59;;;;;;;12.60;5.87;;;;;;;2.90;100.00;93197.56;4892542;29;20049;-50
2022/11/19 08:28:27;;;;;;;11.10;5.20;;;;;;;2.82;100.00;93201.38;4892898;29;20049;-50
2022/11/19 08:30:53;;;;;;;12.63;5.40;;;;;;;3.09;100.00;93202.59;4892477;29;20070;-47
2022/11/19 08:33:20;;;;;;;11.45;5.38;;;;;;;3.37;100.00;93203.81;4892826;29;20048;-53
2022/11/19 08:35:47;;;;;;;11.43;4.97;;;;;;;3.57;100.00;93201.47;4892411;29;20108;-47
2022/11/19 08:38:14;;;;;;;7.50;4.07;;;;;;;3.98;99.39;93207.25;4892764;29;20414;-48
2022/11/19 08:40:40;;;;;;;7.40;3.55;;;;;;;6.32;93.24;93192.97;4898640;29;20506;-51
2022/11/19 08:43:07;;;;;;;5.28;2.80;;;;;;;7.54;83.30;93198.81;4876550;29;20049;-49
2022/11/19 08:45:37;;;;;;;4.20;2.15;;;;;;;9.78;73.31;93194.88;4876254;29;20374;-52
2022/11/19 08:48:06;;;;;;;3.80;2.20;;;;;;;11.47;66.47;93186.81;4891609;29;20086;-53
2022/11/19 08:50:33;;;;;;;3.37;1.90;;;;;;;12.97;58.70;93190.13;4892387;29;20266;-52
2022/11/19 08:53:03;;;;;;;4.13;2.00;;;;;;;13.07;55.38;93181.94;4875790;29;20060;-50
2022/11/19 08:55:30;;;;;;;3.70;2.33;;;;;;;10.84;61.31;93188.25;4892426;29;20063;-52
2022/11/19 08:58:06;;;;;;;4.22;2.30;;;;;;;9.26;66.22;93189.41;4892208;29;20523;-51
2022/11/19 09:00:35;;;;;;;5.18;2.65;;;;;;;9.07;67.36;93194.47;4893690;29;20103;-55
2022/11/19 09:03:02;;;;;;;6.40;2.90;;;;;;;9.56;68.03;93191.84;4896225;29;20553;-53
2022/11/19 09:05:29;;;;;;;4.85;2.80;;;;;;;11.18;63.13;93193.94;4879620;29;20056;-53
2022/11/19 09:07:56;;;;;;;5.80;3.40;;;;;;;12.84;56.55;93197.69;4879122;29;20047;-52
2022/11/19 09:10:23;;;;;;;5.15;2.70;;;;;;;13.18;56.00;93199.59;4895967;29;20051;-53
2022/11/19 09:12:50;;;;;;;6.32;3.90;;;;;;;14.17;51.89;93198.22;4891537;29;20059;-54
2022/11/19 09:15:17;;;;;;;8.40;4.67;;;;;;;14.06;52.42;93192.34;4895718;29;20063;-53
2022/11/19 09:17:44;;;;;;;7.72;4.60;;;;;;;16.22;48.57;93200.28;4895708;29;20049;-53
2022/11/19 09:20:12;;;;;;;6.30;4.03;;;;;;;16.66;44.81;93194.16;4896166;29;20548;-53
2022/11/19 09:22:39;;;;;;;9.98;5.63;;;;;;;17.15;44.09;93203.97;4895739;29;20055;-54
2022/11/19 09:25:07;;;;;;;10.05;5.20;;;;;;;18.26;42.17;93206.34;4896276;29;20048;-54
2022/11/19 09:27:35;;;;;;;7.73;4.83;;;;;;;18.60;40.17;93211.63;4895938;29;20053;-53
2022/11/19 09:30:04;;;;;;;7.53;4.53;;;;;;;19.83;38.06;93205.94;4895497;29;20045;-54
2022/11/19 09:32:32;;;;;;;6.18;3.70;;;;;;;19.40;38.42;93209.31;4895461;29;20044;-54
2022/11/19 09:34:58;;;;;;;5.30;3.58;;;;;;;19.54;38.29;93216.78;4895356;29;20044;-55
2022/11/19 09:37:25;;;;;;;7.15;4.63;;;;;;;19.12;39.27;93215.31;4895835;29;20037;-56
2022/11/19 09:39:52;;;;;;;8.17;4.60;;;;;;;17.71;40.08;93213.28;4885114;29;20060;-54
2022/11/19 09:42:26;;;;;;;7.90;4.32;;;;;;;18.29;38.76;93216.50;4894500;29;20049;-52
2022/11/19 09:45:06;;;;;;;6.18;3.60;;;;;;;18.84;39.38;93214.22;4895064;29;20060;-55
2022/11/19 09:47:53;;;;;;;7.10;3.63;;;;;;;18.02;41.35;93220.38;4895759;29;20044;-52
2022/11/19 09:50:22;;;;;;;6.57;2.95;;;;;;;17.79;40.88;93213.69;4894476;29;20114;-55
2022/11/19 09:53:19;;;;;;;6.23;2.30;;;;;;;15.67;43.64;93215.09;4895013;29;20052;-50
2022/11/19 09:55:48;;;;;;;3.63;1.40;;;;;;;17.10;40.97;93205.41;4892854;29;20041;-54
2022/11/19 09:58:21;;;;;;;5.15;2.60;;;;;;;15.42;42.39;93208.69;4895430;29;20084;-54
2022/11/19 10:00:48;;;;;;;4.40;1.80;;;;;;;16.11;42.38;93217.41;4894807;29;20055;-55
2022/11/19 10:03:16;;;;;;;4.05;1.85;;;;;;;16.46;42.16;93205.84;4895345;29;20419;-57
2022/11/19 10:06:00;;;;;;;3.17;1.30;;;;;;;14.27;45.80;93210.81;4895097;29;20064;-56
2022/11/19 10:09:02;;;;;;;3.28;1.40;;;;;;;17.37;41.38;93209.16;4878423;29;20057;-53
2022/11/19 10:11:46;;;;;;;12.48;7.57;;;;;;;20.00;36.34;93201.28;4834932;29;20278;-52
2022/11/19 10:14:25;;;;;;;3.28;1.50;;;;;;;18.39;37.27;93202.47;4887449;29;20654;-53
2022/11/19 10:17:35;;;;;;;3.20;1.20;;;;;;;17.69;38.54;93198.38;4895049;29;20051;-53
2022/11/19 10:20:09;;;;;;;3.37;1.10;;;;;;;17.30;39.86;93192.91;4874016;29;20059;-52
2022/11/19 10:22:42;;;;;;;9.85;6.22;;;;;;;16.86;39.89;93193.59;4894897;29;20147;-57
2022/11/19 10:25:23;;;;;;;2.33;1.05;;;;;;;15.97;41.63;93193.94;4894214;29;20619;-58
2022/11/19 10:27:56;;;;;;;3.28;0.90;;;;;;;16.28;41.52;93201.94;4894499;29;20438;-54
2022/11/19 10:30:27;;;;;;;3.05;1.00;;;;;;;17.90;37.65;93186.13;4894739;29;20052;-53
2022/11/19 10:33:15;;;;;;;2.10;0.80;;;;;;;18.75;36.21;93178.94;4859360;29;20084;-53
2022/11/19 10:35:52;;;;;;;4.22;1.00;;;;;;;17.26;37.62;93189.53;4857268;29;20049;-54
2022/11/19 10:38:21;;;;;;;2.08;0.80;;;;;;;16.42;40.19;93191.41;4857446;29;20530;-53
2022/11/19 10:41:03;;;;;;;2.60;0.70;;;;;;;17.91;36.93;93190.44;4860299;29;20499;-55
2022/11/19 10:43:37;;;;;;;2.75;0.75;;;;;;;14.52;42.11;93193.22;4857542;29;20061;-52
2022/11/19 10:46:07;;;;;;;2.67;0.80;;;;;;;12.61;46.73;93190.63;4857337;29;20657;-52
2022/11/19 10:48:45;;;;;;;2.63;0.80;;;;;;;10.59;51.76;93195.97;4857213;29;20049;-52
2022/11/19 10:51:23;;;;;;;2.30;1.00;;;;;;;10.88;52.48;93197.16;4856666;29;20690;-54
2022/11/19 10:53:53;;;;;;;3.50;1.40;;;;;;;12.61;49.41;93187.09;4857037;29;20038;-52
2022/11/19 10:56:39;;;;;;;3.38;0.90;;;;;;;13.09;46.38;93188.53;4857039;29;20446;-55
2022/11/19 10:59:32;;;;;;;2.47;0.80;;;;;;;12.49;48.77;93194.19;4856147;29;20856;-56
2022/11/19 11:02:02;;;;;;;2.92;0.90;;;;;;;12.44;48.24;93192.78;4855437;29;20464;-53
2022/11/19 11:04:29;;;;;;;4.72;2.20;;;;;;;12.18;49.23;93183.81;4856803;29;20081;-53
2022/11/19 11:07:01;;;;;;;6.30;2.88;;;;;;;12.41;50.06;93188.16;4856774;29;20500;-54
2022/11/19 11:09:30;;;;;;;4.38;1.60;;;;;;;11.29;53.17;93190.09;4856752;29;20056;-54
2022/11/19 11:14:53;;;;;;;2.75;1.20;;;;;;;11.08;53.55;93189.53;4856005;29;20050;-49
2022/11/19 11:17:26;;;;;;;2.55;0.95;;;;;;;10.61;53.08;93181.84;4856640;29;20220;-58
2022/11/19 11:20:07;;;;;;;3.15;1.20;;;;;;;10.56;54.31;93179.59;4856245;29;20053;-50
2022/11/19 11:22:34;;;;;;;3.08;1.08;;;;;;;10.55;55.00;93181.59;4856214;29;20041;-55
2022/11/19 11:25:01;;;;;;;3.60;1.40;;;;;;;10.52;54.59;93176.19;4856462;29;20087;-55
2022/11/19 11:27:34;;;;;;;2.67;1.17;;;;;;;10.54;54.88;93171.03;4840419;29;20065;-52
2022/11/19 11:30:16;;;;;;;3.75;1.40;;;;;;;10.44;55.60;93166.63;4856270;29;20061;-53
2022/11/19 11:32:43;;;;;;;3.40;0.98;;;;;;;9.99;56.93;93171.63;4852611;29;20052;-52
2022/11/19 11:35:29;;;;;;;2.83;1.15;;;;;;;9.31;58.55;93161.53;4874949;29;20503;-52
2022/11/19 11:37:57;;;;;;;3.73;1.23;;;;;;;8.83;61.32;93160.22;4873706;29;20049;-49
2022/11/19 11:40:24;;;;;;;2.10;0.90;;;;;;;8.68;63.01;93165.97;4883061;29;20087;-54
2022/11/19 11:42:52;;;;;;;3.50;1.15;;;;;;;9.15;61.10;93160.28;4875004;29;20037;-53
2022/11/19 11:45:28;;;;;;;3.15;1.05;;;;;;;9.02;61.83;93167.63;4875002;29;20566;-52
2022/11/19 11:47:57;;;;;;;3.42;1.10;;;;;;;9.16;60.99;93159.09;4874597;29;20495;-53
2022/11/19 11:50:26;;;;;;;3.23;1.17;;;;;;;9.06;61.47;93170.31;4858159;29;20048;-54
2022/11/19 11:52:56;;;;;;;5.03;1.40;;;;;;;9.19;61.29;93168.44;4874554;29;20041;-52
2022/11/19 11:55:23;;;;;;;3.70;1.15;;;;;;;8.94;61.92;93168.97;4874776;29;20361;-56
2022/11/19 11:57:57;;;;;;;3.08;1.20;;;;;;;9.01;62.54;93174.28;4874220;29;20455;-52
2022/11/19 12:00:32;;;;;;;2.75;1.10;;;;;;;8.80;62.91;93170.81;4874124;29;20051;-49
2022/11/19 12:03:07;;;;;;;3.80;1.40;;;;;;;8.47;64.73;93169.13;4874260;29;20053;-54
2022/11/19 12:05:46;;;;;;;3.15;1.40;;;;;;;8.83;63.58;93171.91;4874522;29;20063;-54
2022/11/19 12:08:34;;;;;;;5.03;1.20;;;;;;;8.49;64.88;93167.53;4874075;29;20404;-52
2022/11/19 12:11:15;;;;;;;3.97;1.20;;;;;;;8.46;65.08;93171.09;4873875;29;20056;-52